Time;durP1;ratioP1;P1;durP2;ratioP2;P2;SDS_P1;SDS_P2;PMS_P1;PMS_P2;Temp;Humidity;BMP_temperature;BMP_pressure;BME280_temperature;BME280_humidity;BME280_pressure;Samples;Min_cycle;Max_cycle;Signal;HPM_P1;HPM_P2
2022/05/01 00:02:11;;;;;;;12.07;10.88;;;7.10;99.90;;;;;;5046495;28;20072;-80
2022/05/01 00:04:36;;;;;;;12.38;11.00;;;7.00;99.90;;;;;;5055135;28;20508;-80
2022/05/01 00:07:02;;;;;;;12.77;11.30;;;7.10;99.90;;;;;;5032965;28;20624;-80
2022/05/01 00:09:28;;;;;;;13.27;11.65;;;7.10;99.90;;;;;;5059535;28;20230;-80
2022/05/01 00:11:53;;;;;;;14.45;12.02;;;7.00;99.90;;;;;;5041251;28;20041;-80
2022/05/01 00:14:19;;;;;;;13.25;11.95;;;6.90;99.90;;;;;;5032937;28;20041;-80
2022/05/01 00:16:45;;;;;;;13.35;11.95;;;7.00;99.90;;;;;;5049409;28;20474;-80
2022/05/01 00:19:10;;;;;;;13.25;12.00;;;7.00;99.90;;;;;;5050622;28;20041;-80
2022/05/01 00:21:37;;;;;;;14.32;12.85;;;7.00;99.90;;;;;;5050533;28;20196;-80
2022/05/01 00:24:03;;;;;;;13.23;11.77;;;7.00;99.90;;;;;;5042035;28;20045;-80
2022/05/01 00:26:29;;;;;;;14.95;12.68;;;6.90;99.90;;;;;;5050308;28;20036;-80
2022/05/01 00:28:55;;;;;;;12.73;11.55;;;6.90;99.90;;;;;;5033055;28;20391;-80
2022/05/01 00:31:21;;;;;;;14.05;12.05;;;6.90;99.90;;;;;;5050407;28;20041;-80
2022/05/01 00:36:30;;;;;;;13.98;12.57;;;7.00;99.90;;;;;;5046138;28;20045;-80
2022/05/01 00:39:05;;;;;;;14.10;12.45;;;7.00;99.90;;;;;;5050968;28;20495;-80
2022/05/01 00:41:32;;;;;;;14.07;12.73;;;7.00;99.90;;;;;;5049743;28;20029;-80
2022/05/01 00:44:06;;;;;;;15.30;13.68;;;7.00;99.90;;;;;;5040768;28;20042;-80
2022/05/01 00:46:52;;;;;;;15.90;14.02;;;7.00;99.90;;;;;;5038666;28;20060;-80
2022/05/01 00:49:24;;;;;;;15.65;13.15;;;6.90;99.90;;;;;;5017932;28;20266;-80
2022/05/01 00:52:08;;;;;;;13.70;12.30;;;6.90;99.90;;;;;;5050231;28;20064;-81
2022/05/01 00:54:36;;;;;;;14.02;12.57;;;6.90;99.90;;;;;;5031092;28;20041;-80
2022/05/01 00:57:04;;;;;;;14.43;12.13;;;6.80;99.90;;;;;;5040807;28;20041;-80
2022/05/01 00:59:31;;;;;;;14.55;12.82;;;6.70;99.90;;;;;;5045045;28;20472;-80
2022/05/01 01:01:56;;;;;;;13.70;12.35;;;6.60;99.90;;;;;;5050802;28;20049;-80
2022/05/01 01:04:22;;;;;;;14.90;13.35;;;6.60;99.90;;;;;;5050989;28;20492;-80
2022/05/01 01:06:48;;;;;;;14.68;12.63;;;6.50;99.90;;;;;;5048136;28;20053;-80
2022/05/01 01:09:16;;;;;;;13.93;12.52;;;6.40;99.90;;;;;;5034812;28;20765;-80
2022/05/01 01:11:42;;;;;;;15.18;12.80;;;6.30;99.90;;;;;;5040015;28;20127;-80
2022/05/01 01:14:09;;;;;;;15.20;13.50;;;6.30;99.90;;;;;;5049450;28;20041;-80
2022/05/01 01:16:37;;;;;;;15.63;14.05;;;6.20;99.90;;;;;;5039578;28;20029;-80
2022/05/01 01:19:07;;;;;;;15.88;14.05;;;6.10;99.90;;;;;;5047895;28;20112;-80
2022/05/01 01:21:33;;;;;;;15.77;14.10;;;6.00;99.90;;;;;;5043362;28;20033;-80
2022/05/01 01:24:01;;;;;;;17.85;13.38;;;5.90;99.90;;;;;;5041175;28;20044;-80
2022/05/01 01:26:28;;;;;;;16.23;13.77;;;5.90;99.90;;;;;;5049525;28;20371;-80
2022/05/01 01:28:57;;;;;;;14.48;13.07;;;5.90;99.90;;;;;;5049644;28;20517;-80
2022/05/01 01:31:41;;;;;;;17.33;13.63;;;5.90;99.90;;;;;;5032234;28;20059;-80
2022/05/01 01:34:12;;;;;;;14.68;13.27;;;5.80;99.90;;;;;;5049819;28;20047;-80
2022/05/01 01:36:39;;;;;;;14.52;12.95;;;5.80;99.90;;;;;;5048194;28;20441;-80
2022/05/01 01:39:05;;;;;;;14.65;13.20;;;5.80;99.90;;;;;;5049232;28;20041;-80
2022/05/01 01:41:32;;;;;;;14.50;13.10;;;5.80;99.90;;;;;;5050214;28;20086;-80
2022/05/01 01:43:58;;;;;;;15.02;13.52;;;5.70;99.90;;;;;;5049342;28;20038;-80
2022/05/01 01:46:25;;;;;;;15.07;13.18;;;5.70;99.90;;;;;;5045590;28;20037;-80
2022/05/01 01:48:51;;;;;;;16.67;14.05;;;5.70;99.90;;;;;;5033515;28;20072;-80
2022/05/01 01:51:17;;;;;;;14.48;12.98;;;5.60;99.90;;;;;;5040667;28;20041;-80
2022/05/01 01:53:43;;;;;;;16.92;12.80;;;5.70;99.90;;;;;;5047666;28;20036;-80
2022/05/01 01:56:10;;;;;;;14.93;13.43;;;5.60;99.90;;;;;;5053158;28;20028;-80
2022/05/01 01:58:40;;;;;;;13.63;12.32;;;5.50;99.90;;;;;;5052643;28;20479;-80
2022/05/01 02:01:07;;;;;;;13.13;11.82;;;5.50;99.90;;;;;;5052704;28;20037;-80
2022/05/01 02:03:36;;;;;;;15.15;13.65;;;5.50;99.90;;;;;;5036635;28;20505;-80
2022/05/01 02:06:04;;;;;;;15.63;14.02;;;5.40;99.90;;;;;;5052557;28;20045;-80
2022/05/01 02:08:30;;;;;;;15.82;14.23;;;5.40;99.90;;;;;;5052406;28;20048;-80
2022/05/01 02:10:56;;;;;;;16.75;14.50;;;5.30;99.90;;;;;;5052101;28;20124;-80
2022/05/01 02:13:21;;;;;;;16.45;14.48;;;5.30;99.90;;;;;;5048091;28;20119;-80
2022/05/01 02:15:47;;;;;;;16.08;14.38;;;5.30;99.90;;;;;;5034604;28;20132;-80
2022/05/01 02:18:12;;;;;;;16.10;13.57;;;5.20;99.90;;;;;;5051788;28;20041;-80
2022/05/01 02:23:26;;;;;;;17.20;15.35;;;5.20;99.90;;;;;;5047841;28;20083;-81
2022/05/01 02:25:52;;;;;;;16.98;15.18;;;5.10;99.90;;;;;;5050730;28;20043;-80
2022/05/01 02:28:18;;;;;;;17.30;15.45;;;4.90;99.90;;;;;;5042986;28;20123;-80
2022/05/01 02:30:44;;;;;;;17.92;15.23;;;4.80;99.90;;;;;;5044366;28;20037;-80
2022/05/01 02:33:10;;;;;;;17.50;15.65;;;4.70;99.90;;;;;;5053372;28;20036;-80
2022/05/01 02:35:35;;;;;;;16.50;14.75;;;4.60;99.90;;;;;;5052037;28;20459;-80
2022/05/01 02:38:02;;;;;;;13.90;12.50;;;4.50;99.90;;;;;;5051624;28;20041;-80
2022/05/01 02:40:29;;;;;;;14.43;12.07;;;4.40;99.90;;;;;;5052786;28;20086;-80
2022/05/01 02:42:58;;;;;;;13.38;11.98;;;4.40;99.90;;;;;;5056552;28;20097;-80
2022/05/01 02:45:24;;;;;;;12.10;11.00;;;4.40;99.90;;;;;;5056936;28;20048;-80
2022/05/01 02:47:50;;;;;;;12.43;11.23;;;4.30;99.90;;;;;;5051838;28;20060;-80
2022/05/01 02:50:15;;;;;;;13.50;12.02;;;4.30;99.90;;;;;;5050904;28;20407;-80
2022/05/01 02:52:41;;;;;;;12.40;11.30;;;4.40;99.90;;;;;;5037255;28;20115;-80
2022/05/01 02:55:07;;;;;;;12.85;11.55;;;4.40;99.90;;;;;;5052698;28;20033;-80
2022/05/01 02:57:33;;;;;;;13.07;11.77;;;4.40;99.90;;;;;;5040939;28;20045;-80
2022/05/01 02:59:59;;;;;;;12.63;11.38;;;4.40;99.90;;;;;;5052138;28;20048;-80
2022/05/01 03:02:24;;;;;;;13.38;12.07;;;4.50;99.90;;;;;;5049175;28;20852;-80
2022/05/01 03:04:50;;;;;;;13.70;12.20;;;4.40;99.90;;;;;;5043801;28;20097;-80
2022/05/01 03:07:16;;;;;;;14.85;12.68;;;4.40;99.90;;;;;;5051630;28;20045;-80
2022/05/01 03:09:41;;;;;;;13.93;12.52;;;4.40;99.90;;;;;;5051631;28;20032;-80
2022/05/01 03:12:08;;;;;;;13.88;12.48;;;4.30;99.90;;;;;;5050467;28;20039;-80
2022/05/01 03:14:33;;;;;;;15.63;14.05;;;4.30;99.90;;;;;;5048694;28;20394;-80
2022/05/01 03:16:59;;;;;;;15.88;14.18;;;4.30;99.90;;;;;;5051763;28;20041;-80
2022/05/01 03:22:13;;;;;;;16.58;14.85;;;4.20;99.90;;;;;;5050882;28;20056;-80
2022/05/01 03:24:39;;;;;;;16.20;13.80;;;4.20;99.90;;;;;;5052264;28;20049;-80
2022/05/01 03:27:06;;;;;;;16.30;14.68;;;4.20;99.90;;;;;;5035550;28;20052;-80
2022/05/01 03:29:31;;;;;;;15.38;13.88;;;4.10;99.90;;;;;;5034616;28;20422;-80
2022/05/01 03:31:58;;;;;;;17.05;14.77;;;4.00;99.90;;;;;;5052348;28;20048;-80
2022/05/01 03:34:23;;;;;;;16.52;13.82;;;3.90;99.90;;;;;;5052467;28;20044;-80
2022/05/01 03:36:49;;;;;;;17.42;15.65;;;3.90;99.90;;;;;;5048475;28;20048;-80
2022/05/01 03:39:16;;;;;;;15.68;13.98;;;3.90;99.90;;;;;;5048036;28;20131;-80
2022/05/01 03:41:41;;;;;;;16.42;14.73;;;3.80;99.90;;;;;;5052004;28;20045;-80
2022/05/01 03:44:10;;;;;;;17.52;15.63;;;3.80;99.90;;;;;;5050840;28;20091;-80
2022/05/01 03:46:36;;;;;;;19.05;16.58;;;3.80;99.90;;;;;;5052236;28;20048;-80
2022/05/01 03:49:03;;;;;;;18.23;16.25;;;3.60;99.90;;;;;;5033876;28;20037;-80
2022/05/01 03:51:31;;;;;;;19.17;17.10;;;3.60;99.90;;;;;;5051962;28;20053;-80
2022/05/01 03:54:02;;;;;;;17.98;16.15;;;3.50;99.90;;;;;;5050898;28;20071;-80
2022/05/01 03:56:31;;;;;;;18.67;15.85;;;3.50;99.90;;;;;;5051554;28;20048;-80
2022/05/01 03:58:57;;;;;;;16.33;14.45;;;3.40;99.90;;;;;;5043337;28;20054;-80
2022/05/01 04:01:24;;;;;;;16.10;14.50;;;3.40;99.90;;;;;;5042299;28;20471;-80
2022/05/01 04:03:50;;;;;;;43.83;16.17;;;3.50;99.90;;;;;;5045324;28;20049;-80
2022/05/01 04:06:16;;;;;;;16.30;14.60;;;3.50;99.90;;;;;;5036318;28;20060;-80
2022/05/01 04:08:42;;;;;;;17.55;15.55;;;3.50;99.90;;;;;;5043815;28;20487;-81
2022/05/01 04:11:08;;;;;;;19.80;16.98;;;3.50;99.90;;;;;;5033985;28;20463;-81
2022/05/01 04:13:35;;;;;;;17.30;15.10;;;3.40;99.90;;;;;;5042391;28;20045;-81
2022/05/01 04:16:02;;;;;;;18.88;15.95;;;3.50;99.90;;;;;;5036656;28;20506;-80
2022/05/01 04:18:27;;;;;;;18.52;15.65;;;3.50;99.90;;;;;;5030373;28;20051;-81
2022/05/01 04:20:53;;;;;;;18.50;15.82;;;3.50;99.90;;;;;;5050490;28;20041;-81
2022/05/01 04:23:18;;;;;;;16.73;15.07;;;3.50;99.90;;;;;;5066743;28;20080;-80
2022/05/01 04:25:45;;;;;;;16.80;15.07;;;3.60;99.90;;;;;;5040705;28;20359;-80
2022/05/01 04:28:11;;;;;;;19.38;17.27;;;3.60;99.90;;;;;;5041032;28;20053;-81
2022/05/01 04:30:39;;;;;;;17.08;15.10;;;3.60;99.90;;;;;;5027090;28;20041;-80
2022/05/01 04:33:10;;;;;;;21.95;15.88;;;3.60;99.90;;;;;;5050341;28;20055;-80
2022/05/01 04:35:40;;;;;;;31.90;17.88;;;3.60;99.90;;;;;;5050459;28;20033;-81
2022/05/01 04:38:17;;;;;;;22.02;15.82;;;3.60;99.90;;;;;;5018718;28;20037;-80
2022/05/01 04:40:46;;;;;;;17.25;15.45;;;3.60;99.90;;;;;;5024284;28;20059;-80
2022/05/01 04:43:19;;;;;;;17.92;16.13;;;3.70;99.90;;;;;;5032471;28;20126;-80
2022/05/01 04:45:50;;;;;;;17.05;15.13;;;3.70;99.90;;;;;;5025883;28;20025;-81
2022/05/01 04:48:17;;;;;;;17.17;15.45;;;3.80;99.90;;;;;;5015953;28;20942;-81
2022/05/01 04:50:44;;;;;;;20.48;16.92;;;3.80;99.90;;;;;;5033798;28;20037;-81
2022/05/01 04:53:12;;;;;;;19.30;14.57;;;3.90;99.90;;;;;;5029438;28;20033;-81
2022/05/01 04:55:44;;;;;;;16.83;14.88;;;3.90;99.90;;;;;;5017404;28;20072;-81
2022/05/01 04:58:10;;;;;;;;;;;4.00;99.90;;;;;;5027256;28;20047;-81
2022/05/01 05:00:36;;;;;;;16.65;13.90;;;4.00;99.90;;;;;;5047051;28;19917;-81
2022/05/01 05:03:03;;;;;;;17.90;14.45;;;4.10;99.90;;;;;;5048373;28;20169;-81
2022/05/01 05:05:31;;;;;;;20.35;16.33;;;4.10;99.90;;;;;;5048632;28;20044;-81
2022/05/01 05:09:53;;;;;;;19.13;15.93;;;4.10;99.90;;;;;;5047854;28;20127;-81
2022/05/01 05:10:46;;;;;;;16.13;14.52;;;4.10;99.90;;;;;;5047153;28;20045;-80
2022/05/01 05:13:15;;;;;;;16.38;14.85;;;4.20;99.90;;;;;;5045241;28;20049;-81
2022/05/01 05:15:41;;;;;;;33.40;16.85;;;4.30;99.90;;;;;;5027997;28;20071;-80
2022/05/01 05:18:07;;;;;;;18.55;16.58;;;4.30;99.90;;;;;;5056228;28;20040;-81
2022/05/01 05:20:33;;;;;;;17.58;15.60;;;4.30;99.90;;;;;;5051015;28;20687;-81
2022/05/01 05:22:59;;;;;;;19.73;17.27;;;4.20;99.90;;;;;;5051669;28;20150;-81
2022/05/01 05:25:24;;;;;;;18.17;16.38;;;4.20;99.90;;;;;;5051483;28;20110;-81
2022/05/01 05:27:50;;;;;;;16.92;15.32;;;4.20;99.90;;;;;;5051604;28;20041;-81
2022/05/01 05:30:15;;;;;;;17.85;15.98;;;4.30;99.90;;;;;;5051948;28;20036;-81
2022/05/01 05:32:41;;;;;;;20.25;17.02;;;4.50;99.90;;;;;;5048302;28;20033;-81
2022/05/01 05:35:07;;;;;;;18.73;16.38;;;4.60;99.90;;;;;;5038040;28;20492;-81
2022/05/01 05:37:32;;;;;;;18.52;16.67;;;4.80;99.90;;;;;;5049478;28;20110;-81
2022/05/01 05:39:58;;;;;;;19.92;17.33;;;5.00;99.90;;;;;;5051701;28;20053;-81
2022/05/01 05:42:24;;;;;;;18.67;16.77;;;5.20;99.90;;;;;;5052201;28;20037;-81
2022/05/01 05:44:50;;;;;;;18.13;16.33;;;5.40;99.90;;;;;;5022465;28;20049;-81
2022/05/01 05:47:15;;;;;;;25.02;17.15;;;5.80;99.90;;;;;;5046871;28;20059;-81
2022/05/01 05:49:41;;;;;;;15.60;14.13;;;6.80;99.90;;;;;;5051661;28;20028;-81
2022/05/01 05:52:07;;;;;;;19.38;16.50;;;8.40;99.90;;;;;;5060791;22;20049;-78
2022/05/01 05:54:33;;;;;;;18.83;15.55;;;9.90;99.90;;;;;;5058546;28;20051;-78
2022/05/01 05:56:59;;;;;;;16.33;14.82;;;;;;;;;;5055879;28;20050;-78
2022/05/01 05:59:24;;;;;;;17.95;15.88;;;12.10;99.90;;;;;;5049546;28;20519;-78
2022/05/01 06:01:50;;;;;;;16.50;14.82;;;12.90;99.90;;;;;;5023754;28;20037;-78
2022/05/01 06:04:16;;;;;;;15.77;14.18;;;13.50;99.90;;;;;;5050157;28;20041;-78
2022/05/01 06:06:41;;;;;;;13.50;12.30;;;14.30;99.90;;;;;;5050667;28;20453;-78
2022/05/01 06:09:08;;;;;;;13.93;12.63;;;14.90;99.90;;;;;;5037407;28;20050;-78
2022/05/01 06:11:35;;;;;;;15.00;13.48;;;15.30;99.90;;;;;;5054956;28;20525;-78
2022/05/01 06:14:02;;;;;;;13.73;12.38;;;16.00;97.40;;;;;;5050442;28;20040;-78
2022/05/01 06:16:28;;;;;;;12.88;11.68;;;15.90;96.90;;;;;;5052258;28;20068;-75
2022/05/01 06:18:53;;;;;;;15.10;11.45;;;17.00;96.30;;;;;;5049381;28;20076;-74
2022/05/01 06:21:19;;;;;;;13.52;12.30;;;18.00;95.80;;;;;;5051582;28;20045;-74
2022/05/01 06:23:47;;;;;;;12.50;11.45;;;18.60;92.80;;;;;;5048545;28;20098;-75
2022/05/01 06:26:13;;;;;;;13.13;11.93;;;;;;;;;;5060002;28;20673;-74
2022/05/01 06:28:39;;;;;;;11.63;10.63;;;18.90;89.70;;;;;;5053101;28;20642;-74
2022/05/01 06:31:05;;;;;;;12.27;11.20;;;17.40;84.90;;;;;;5052119;28;20047;-74
2022/05/01 06:33:33;;;;;;;12.48;11.27;;;17.20;89.40;;;;;;5046945;28;20071;-74
2022/05/01 06:35:59;;;;;;;12.13;10.65;;;17.30;89.90;;;;;;5052626;28;20033;-75
2022/05/01 06:38:25;;;;;;;9.75;7.60;;;18.60;90.50;;;;;;5049244;28;20095;-75
2022/05/01 06:40:51;;;;;;;10.48;9.52;;;18.60;80.70;;;;;;5037512;28;20449;-74
2022/05/01 06:43:17;;;;;;;11.02;9.80;;;17.40;80.20;;;;;;5051148;28;20045;-74
2022/05/01 06:45:43;;;;;;;11.05;10.05;;;16.50;85.20;;;;;;5051015;28;20041;-74
2022/05/01 06:48:10;;;;;;;8.65;7.85;;;17.70;90.00;;;;;;5051761;28;20037;-74
2022/05/01 06:50:36;;;;;;;10.68;9.52;;;16.80;81.90;;;;;;5049458;28;20037;-74
2022/05/01 06:53:02;;;;;;;9.30;8.40;;;17.80;84.20;;;;;;5050607;28;20057;-74
2022/05/01 06:55:27;;;;;;;8.60;7.82;;;18.00;79.80;;;;;;5051814;28;20119;-74
2022/05/01 06:57:53;;;;;;;8.48;7.50;;;18.90;85.60;;;;;;5051345;28;20052;-74
2022/05/01 07:00:19;;;;;;;7.50;6.80;;;19.10;82.20;;;;;;5057077;28;20422;-74
2022/05/01 07:02:46;;;;;;;6.90;6.30;;;18.90;80.00;;;;;;5051032;28;20049;-74
2022/05/01 07:05:12;;;;;;;5.97;5.40;;;19.20;75.90;;;;;;5049161;28;20037;-74
2022/05/01 07:07:38;;;;;;;5.88;5.38;;;19.30;66.60;;;;;;5049600;28;20045;-74
2022/05/01 07:10:04;;;;;;;6.25;4.10;;;19.50;69.50;;;;;;5034202;28;20064;-74
2022/05/01 07:12:30;;;;;;;6.07;4.85;;;18.80;67.30;;;;;;5058384;28;20048;-74
2022/05/01 07:14:55;;;;;;;5.22;4.20;;;20.00;65.90;;;;;;5052155;28;20041;-74
2022/05/01 07:17:21;;;;;;;5.28;4.78;;;18.20;67.70;;;;;;5050602;28;20051;-74
2022/05/01 07:19:47;;;;;;;5.97;5.32;;;18.60;67.00;;;;;;5050553;28;20500;-74
2022/05/01 07:22:13;;;;;;;5.45;4.95;;;18.70;70.40;;;;;;5047041;28;20241;-74
2022/05/01 07:24:39;;;;;;;5.13;4.63;;;17.50;67.80;;;;;;5031201;28;20064;-74
2022/05/01 07:27:05;;;;;;;5.00;4.50;;;18.20;72.30;;;;;;5050469;28;20126;-74
2022/05/01 07:29:30;;;;;;;4.38;4.07;;;16.50;71.70;;;;;;5049719;28;20051;-74
2022/05/01 07:31:56;;;;;;;4.80;4.40;;;16.00;71.20;;;;;;5033743;28;20033;-74
2022/05/01 07:34:21;;;;;;;4.70;4.18;;;16.90;73.00;;;;;;5051218;28;20548;-74
2022/05/01 07:36:47;;;;;;;5.15;4.50;;;17.10;71.20;;;;;;5038757;28;20124;-74
2022/05/01 07:39:13;;;;;;;5.18;4.65;;;18.10;74.70;;;;;;5039070;28;20033;-74
2022/05/01 07:41:38;;;;;;;4.43;4.03;;;18.80;71.80;;;;;;5048978;28;20041;-74
2022/05/01 07:44:04;;;;;;;5.57;4.07;;;19.20;65.10;;;;;;5049198;28;20414;-74
2022/05/01 07:46:29;;;;;;;4.90;4.03;;;19.70;68.00;;;;;;5045640;28;20555;-74
2022/05/01 07:48:55;;;;;;;5.13;3.97;;;;;;;;;;5032366;28;20363;-74
2022/05/01 07:51:21;;;;;;;7.30;4.80;;;20.30;62.90;;;;;;5047104;28;20365;-74
2022/05/01 07:53:47;;;;;;;5.07;4.30;;;19.60;62.80;;;;;;5048589;28;20044;-74
2022/05/01 07:56:12;;;;;;;5.20;4.70;;;17.70;64.10;;;;;;5050364;28;20164;-74
2022/05/01 07:58:38;;;;;;;5.25;4.75;;;15.50;72.40;;;;;;5046369;28;20509;-73
2022/05/01 08:01:04;;;;;;;6.68;4.97;;;16.00;74.90;;;;;;5036344;28;20526;-73
2022/05/01 08:06:14;;;;;;;5.55;4.22;;;15.40;79.00;;;;;;5049418;28;20044;-74
2022/05/01 08:08:41;;;;;;;4.35;3.95;;;15.00;80.00;;;;;;5051470;28;20037;-73
2022/05/01 08:11:07;;;;;;;4.97;4.15;;;14.20;73.60;;;;;;5067354;28;20115;-73
2022/05/01 08:13:33;;;;;;;6.55;4.57;;;14.70;79.30;;;;;;5048232;28;20125;-73
2022/05/01 08:15:59;;;;;;;4.50;4.00;;;14.90;81.10;;;;;;5049113;28;20127;-74
2022/05/01 08:21:09;;;;;;;5.57;4.13;;;14.80;80.00;;;;;;5044200;28;20045;-73
2022/05/01 08:23:36;;;;;;;4.63;4.18;;;14.20;79.80;;;;;;5042500;28;20088;-73
2022/05/01 08:26:03;;;;;;;5.75;3.97;;;14.00;82.10;;;;;;5057527;28;20045;-73
2022/05/01 08:28:33;;;;;;;5.68;4.55;;;13.60;85.40;;;;;;5041670;28;20490;-74
2022/05/01 08:30:59;;;;;;;4.03;3.65;;;13.40;88.90;;;;;;5030400;28;20569;-73
2022/05/01 08:33:25;;;;;;;4.88;4.32;;;13.70;90.50;;;;;;5046272;28;20048;-73
2022/05/01 08:35:51;;;;;;;5.07;4.32;;;14.00;91.50;;;;;;5043856;28;20041;-74
2022/05/01 08:38:17;;;;;;;6.72;4.45;;;14.00;90.80;;;;;;5054369;28;20483;-74
2022/05/01 08:40:45;;;;;;;4.75;4.35;;;13.30;90.90;;;;;;5045586;28;20489;-74
2022/05/01 08:43:14;;;;;;;4.75;4.07;;;13.90;91.00;;;;;;5049048;28;20039;-74
2022/05/01 08:46:13;;;;;;;5.22;3.90;;;13.60;90.50;;;;;;5032454;28;20037;-74
2022/05/01 08:48:49;;;;;;;6.05;3.90;;;14.20;91.00;;;;;;5050547;28;20148;-73
2022/05/01 08:51:17;;;;;;;3.90;3.60;;;14.30;90.50;;;;;;5049695;28;20382;-74
2022/05/01 08:53:44;;;;;;;5.75;3.53;;;14.30;89.00;;;;;;5046735;28;20049;-74
2022/05/01 08:56:10;;;;;;;4.63;4.22;;;14.20;85.40;;;;;;5049097;28;20053;-74
2022/05/01 08:58:42;;;;;;;3.92;3.40;;;13.90;85.70;;;;;;5049309;28;20378;-73
2022/05/01 09:01:11;;;;;;;5.25;3.70;;;13.80;85.90;;;;;;5032330;28;20646;-74
2022/05/01 09:03:39;;;;;;;3.92;3.20;;;13.90;90.00;;;;;;5050599;28;20101;-73
2022/05/01 09:06:05;;;;;;;4.10;3.58;;;13.30;87.80;;;;;;5042518;28;20139;-74
2022/05/01 09:08:31;;;;;;;3.88;3.40;;;13.70;90.10;;;;;;5050236;28;20581;-73
2022/05/01 09:12:49;;;;;;;4.25;3.42;;;13.90;90.30;;;;;;5044928;28;20033;-74
2022/05/01 09:13:42;;;;;;;5.13;3.80;;;14.00;90.20;;;;;;5046138;28;20040;-73
2022/05/01 09:16:11;;;;;;;4.45;3.60;;;14.10;88.40;;;;;;5049575;28;20098;-73
2022/05/01 09:18:47;;;;;;;6.05;3.92;;;14.30;89.20;;;;;;5048701;28;20131;-73
2022/05/01 09:21:13;;;;;;;3.90;3.50;;;14.40;89.30;;;;;;5040318;28;20080;-73
2022/05/01 09:23:41;;;;;;;3.50;3.20;;;14.00;82.30;;;;;;5048308;28;20076;-73
2022/05/01 09:26:09;;;;;;;5.40;3.60;;;13.80;85.00;;;;;;5033515;28;20240;-73
2022/05/01 09:28:46;;;;;;;4.18;3.78;;;14.30;87.40;;;;;;5042953;28;20037;-73
2022/05/01 09:31:12;;;;;;;5.25;3.80;;;14.80;88.70;;;;;;5048595;28;20041;-73
2022/05/01 09:33:37;;;;;;;4.10;3.70;;;14.90;78.20;;;;;;5044223;28;20384;-73
2022/05/01 09:36:03;;;;;;;4.40;3.70;;;14.70;82.20;;;;;;5048657;28;20045;-73
2022/05/01 09:38:29;;;;;;;4.97;3.72;;;14.70;81.80;;;;;;5048224;28;20575;-73
2022/05/01 09:40:58;;;;;;;4.78;4.13;;;14.70;83.30;;;;;;5048128;28;20045;-74
2022/05/01 09:43:41;;;;;;;3.67;3.30;;;15.00;85.70;;;;;;5046455;28;20450;-74
2022/05/01 09:46:23;;;;;;;4.72;3.45;;;15.10;82.00;;;;;;5064348;28;20132;-73
2022/05/01 09:49:10;;;;;;;4.80;3.97;;;15.30;80.10;;;;;;5047146;28;20490;-73
2022/05/01 09:51:46;;;;;;;4.18;3.70;;;15.10;79.50;;;;;;5040153;28;20049;-73
2022/05/01 09:54:22;;;;;;;5.05;3.33;;;15.20;82.90;;;;;;5045619;28;20119;-73
2022/05/01 09:56:51;;;;;;;4.30;3.90;;;15.20;81.60;;;;;;5046585;28;20045;-73
2022/05/01 09:59:22;;;;;;;4.85;3.67;;;15.30;83.40;;;;;;5046265;28;20032;-73
2022/05/01 10:01:54;;;;;;;4.47;3.33;;;15.40;81.90;;;;;;5046956;28;20041;-73
2022/05/01 10:04:22;;;;;;;7.53;3.58;;;15.50;75.60;;;;;;5033704;28;20853;-73
2022/05/01 10:06:50;;;;;;;3.70;3.40;;;15.60;81.60;;;;;;5051952;28;20040;-73
2022/05/01 10:09:16;;;;;;;5.03;3.50;;;15.70;82.40;;;;;;5033985;28;20408;-73
2022/05/01 10:11:42;;;;;;;8.02;3.45;;;16.00;83.00;;;;;;5034830;28;20045;-74
2022/05/01 10:14:08;;;;;;;3.85;3.45;;;16.00;79.60;;;;;;5050231;28;20090;-73
2022/05/01 10:16:34;;;;;;;5.20;3.67;;;16.20;80.00;;;;;;5051572;28;20437;-73
2022/05/01 10:18:59;;;;;;;3.75;3.13;;;15.70;68.40;;;;;;5029309;28;20064;-73
2022/05/01 10:21:28;;;;;;;4.13;3.22;;;15.50;69.90;;;;;;5047855;28;20077;-74
2022/05/01 10:23:54;;;;;;;5.57;3.78;;;15.70;74.30;;;;;;5051468;28;20044;-73
2022/05/01 10:26:29;;;;;;;5.13;3.65;;;16.00;71.00;;;;;;5051648;28;20498;-73
2022/05/01 10:29:24;;;;;;;3.33;3.00;;;15.60;71.70;;;;;;5051251;28;20444;-73
2022/05/01 10:32:25;;;;;;;3.85;3.55;;;15.90;74.40;;;;;;5034197;28;20494;-73
2022/05/01 10:35:18;;;;;;;4.53;3.92;;;16.20;74.70;;;;;;5040930;28;20049;-73
2022/05/01 10:37:56;;;;;;;4.90;3.70;;;16.40;68.40;;;;;;5049667;28;20122;-74
2022/05/01 10:40:22;;;;;;;4.60;3.70;;;16.70;74.00;;;;;;5051394;28;20059;-73
2022/05/01 10:42:49;;;;;;;3.65;3.30;;;16.60;72.60;;;;;;5048989;28;20040;-73
2022/05/01 10:45:21;;;;;;;3.85;3.28;;;16.70;72.00;;;;;;5039087;28;20059;-73
2022/05/01 10:47:49;;;;;;;3.75;3.10;;;16.70;70.30;;;;;;5049231;28;20041;-73
2022/05/01 10:50:21;;;;;;;3.78;3.33;;;16.70;72.70;;;;;;5051500;28;20025;-73
2022/05/01 10:53:06;;;;;;;;;;;16.80;72.60;;;;;;5026576;28;20110;-73
2022/05/01 10:56:14;;;;;;;3.50;3.20;;;16.90;70.80;;;;;;5047913;28;19917;-73
2022/05/01 10:58:40;;;;;;;3.83;3.03;;;17.10;73.30;;;;;;5047240;28;20134;-73
2022/05/01 11:01:06;;;;;;;3.50;3.08;;;17.10;69.00;;;;;;5053602;28;20037;-73
2022/05/01 11:03:36;;;;;;;4.72;3.40;;;17.00;72.20;;;;;;5049624;28;20354;-73
2022/05/01 11:06:02;;;;;;;3.20;2.90;;;16.90;70.30;;;;;;5050497;28;20747;-73
2022/05/01 11:08:30;;;;;;;3.58;3.08;;;16.90;71.40;;;;;;5048301;28;20042;-73
2022/05/01 11:10:59;;;;;;;4.50;3.28;;;16.90;70.80;;;;;;5033647;28;20378;-73
2022/05/01 11:13:39;;;;;;;6.43;3.22;;;17.10;69.10;;;;;;5031841;28;20034;-73
2022/05/01 11:16:06;;;;;;;4.68;3.58;;;16.60;66.90;;;;;;5040250;28;20682;-73
2022/05/01 11:18:53;;;;;;;3.78;3.28;;;16.60;71.50;;;;;;5051318;28;20037;-73
2022/05/01 11:21:24;;;;;;;4.55;3.72;;;16.70;71.90;;;;;;5026819;28;20053;-73
2022/05/01 11:24:01;;;;;;;3.70;3.40;;;16.60;65.80;;;;;;5031335;28;20052;-73
2022/05/01 11:26:27;;;;;;;4.65;3.35;;;16.70;71.80;;;;;;5045825;28;20044;-73
2022/05/01 11:29:10;;;;;;;3.92;3.38;;;16.60;71.70;;;;;;5050114;28;20063;-73
2022/05/01 11:31:35;;;;;;;26.48;4.53;;;16.70;73.20;;;;;;5051773;28;20619;-73
2022/05/01 11:34:16;;;;;;;4.30;3.25;;;16.80;73.50;;;;;;5051925;28;20061;-73
2022/05/01 11:36:58;;;;;;;3.90;3.50;;;16.70;71.80;;;;;;5045895;28;20099;-73
2022/05/01 11:39:43;;;;;;;;;;;16.70;70.40;;;;;;5026917;28;20095;-73
2022/05/01 11:42:38;;;;;;;3.70;3.25;;;15.80;65.40;;;;;;5030953;28;19916;-73
2022/05/01 11:45:04;;;;;;;3.70;3.40;;;16.20;71.70;;;;;;5019659;28;20055;-73
2022/05/01 11:47:34;;;;;;;4.97;3.30;;;16.20;73.30;;;;;;5050077;28;20045;-73
2022/05/01 11:50:01;;;;;;;3.70;3.40;;;16.30;71.00;;;;;;5047485;28;20044;-73
2022/05/01 11:52:27;;;;;;;4.85;3.25;;;16.40;72.60;;;;;;5054110;28;20057;-73
2022/05/01 11:54:58;;;;;;;4.00;3.38;;;16.30;66.90;;;;;;5048305;28;20048;-73
2022/05/01 12:03:01;;;;;;;3.75;3.35;;;16.10;68.40;;;;;;5040299;28;20084;-73
2022/05/01 12:05:31;;;;;;;7.47;3.55;;;16.40;70.50;;;;;;5048333;28;20072;-73
2022/05/01 12:07:57;;;;;;;5.15;3.72;;;16.60;71.50;;;;;;5026011;28;20490;-73
2022/05/01 12:10:24;;;;;;;4.03;3.33;;;16.70;71.40;;;;;;5047395;28;20370;-73
2022/05/01 12:12:49;;;;;;;4.20;3.72;;;16.80;69.90;;;;;;5027760;28;20051;-73
2022/05/01 12:15:15;;;;;;;4.45;3.25;;;16.90;71.80;;;;;;5046850;28;20033;-73
2022/05/01 12:17:42;;;;;;;5.40;3.70;;;17.00;70.20;;;;;;5045632;28;20591;-73
2022/05/01 12:20:08;;;;;;;3.80;3.17;;;17.00;71.70;;;;;;5041305;28;20036;-73
2022/05/01 12:22:37;;;;;;;3.65;3.03;;;17.10;69.50;;;;;;5047836;28;20040;-73
2022/05/01 12:25:10;;;;;;;5.22;3.40;;;17.20;71.00;;;;;;5028221;28;20053;-73
2022/05/01 12:27:40;;;;;;;4.72;3.13;;;17.20;70.70;;;;;;5047432;28;20386;-73
2022/05/01 12:30:06;;;;;;;4.18;3.38;;;17.20;70.60;;;;;;5049053;28;20500;-73
2022/05/01 12:32:32;;;;;;;3.92;3.40;;;17.30;72.00;;;;;;5045966;28;20033;-73
2022/05/01 12:35:01;;;;;;;3.97;2.88;;;16.80;63.90;;;;;;5044359;28;20051;-73
2022/05/01 12:37:34;;;;;;;5.25;3.17;;;16.90;62.40;;;;;;5039467;28;20045;-73
2022/05/01 12:40:02;;;;;;;3.53;3.10;;;16.90;66.40;;;;;;5044923;28;20045;-73
2022/05/01 12:45:20;;;;;;;3.83;3.10;;;16.70;63.30;;;;;;5041403;28;20049;-73
2022/05/01 12:47:53;;;;;;;3.88;2.95;;;16.90;67.40;;;;;;5044216;28;20091;-73
2022/05/01 12:50:18;;;;;;;3.70;3.15;;;16.90;66.60;;;;;;5046843;28;20037;-73
2022/05/01 12:52:46;;;;;;;3.22;2.92;;;16.90;61.10;;;;;;5045947;28;20055;-73
2022/05/01 12:55:15;;;;;;;4.60;3.28;;;16.20;61.60;;;;;;5046496;28;20727;-73
2022/05/01 12:57:43;;;;;;;3.60;3.00;;;16.40;64.20;;;;;;5043785;28;20109;-73
2022/05/01 13:00:09;;;;;;;5.43;3.30;;;16.50;62.70;;;;;;5041901;28;20049;-73
2022/05/01 13:02:35;;;;;;;3.30;3.00;;;16.60;69.50;;;;;;5049550;28;20041;-73
2022/05/01 13:05:04;;;;;;;3.38;3.08;;;16.60;69.60;;;;;;5030984;28;20049;-73
2022/05/01 13:07:34;;;;;;;3.50;3.17;;;16.80;71.90;;;;;;5039460;28;20077;-73
2022/05/01 13:10:01;;;;;;;17.35;3.72;;;16.90;69.10;;;;;;5041455;28;20052;-73
2022/05/01 13:12:30;;;;;;;6.78;3.15;;;17.10;71.20;;;;;;5044728;28;20037;-73